createdAt,value
2018-08-22T00:02:33.425Z,51.79
2018-08-22T00:05:08.056Z,51.63
2018-08-22T00:07:42.742Z,52.26
2018-08-22T00:10:17.266Z,51.85
2018-08-22T00:12:51.748Z,52.27
2018-08-22T00:15:26.248Z,52.22
2018-08-22T00:18:00.852Z,52.60
2018-08-22T00:20:35.492Z,52.86
2018-08-22T00:23:10.120Z,52.55
2018-08-22T00:25:44.803Z,52.58
2018-08-22T00:28:19.517Z,53.10
2018-08-22T00:30:54.184Z,52.80
2018-08-22T00:33:28.778Z,53.23
2018-08-22T00:36:03.314Z,53.01
2018-08-22T00:38:37.940Z,52.89
2018-08-22T00:41:12.534Z,53.43
2018-08-22T00:43:47.244Z,53.50
2018-08-22T00:46:22.937Z,53.62
2018-08-22T00:49:09.917Z,53.76
2018-08-22T00:51:51.867Z,53.65
2018-08-22T00:54:26.343Z,53.10
2018-08-22T00:57:00.902Z,53.57
2018-08-22T00:59:35.784Z,53.73
2018-08-22T01:02:10.360Z,53.87
2018-08-22T01:04:45.092Z,54.07
2018-08-22T01:07:19.729Z,54.33
2018-08-22T01:09:54.188Z,54.01
2018-08-22T01:12:28.815Z,54.37
2018-08-22T01:15:03.621Z,54.10
2018-08-22T01:17:38.058Z,55.10
2018-08-22T01:20:18.785Z,54.63
2018-08-22T01:22:53.423Z,54.77
2018-08-22T01:25:28.090Z,54.30
2018-08-22T01:28:02.760Z,54.58
2018-08-22T01:30:37.260Z,55.01
2018-08-22T01:33:11.845Z,55.20
2018-08-22T01:35:46.884Z,55.82
2018-08-22T01:38:21.489Z,55.98
2018-08-22T01:40:56.049Z,57.31
2018-08-22T01:43:30.571Z,55.64
2018-08-22T01:46:05.384Z,56.23
2018-08-22T01:48:39.849Z,55.98
2018-08-22T01:51:14.329Z,55.97
2018-08-22T01:53:48.736Z,55.12
2018-08-22T01:56:23.344Z,55.97
2018-08-22T01:58:57.940Z,54.87
2018-08-22T02:01:32.527Z,55.03
2018-08-22T02:04:07.277Z,55.62
2018-08-22T02:06:41.892Z,55.40
2018-08-22T02:09:16.577Z,56.07
2018-08-22T02:11:51.089Z,55.45
2018-08-22T02:14:25.618Z,56.74
2018-08-22T02:17:00.448Z,55.92
2018-08-22T02:19:35.079Z,56.55
2018-08-22T02:22:09.724Z,57.11
2018-08-22T02:24:44.276Z,56.34
2018-08-22T02:27:18.882Z,56.54
2018-08-22T02:29:53.488Z,56.26
2018-08-22T02:32:28.155Z,55.93
2018-08-22T02:35:02.784Z,55.96
2018-08-22T02:37:37.411Z,55.96
2018-08-22T02:40:11.975Z,55.83
2018-08-22T02:42:46.477Z,55.83
2018-08-22T02:45:21.125Z,55.58
2018-08-22T02:47:55.672Z,56.25
2018-08-22T02:50:30.093Z,56.15
2018-08-22T02:53:04.648Z,56.09
2018-08-22T02:55:39.234Z,55.95
2018-08-22T02:58:13.772Z,56.09
2018-08-22T03:00:48.421Z,56.12
2018-08-22T03:03:23.049Z,56.66
2018-08-22T03:05:57.553Z,56.63
2018-08-22T03:08:32.137Z,56.83
2018-08-22T03:11:06.705Z,57.22
2018-08-22T03:13:41.344Z,56.72
2018-08-22T03:16:15.964Z,57.37
2018-08-22T03:18:50.676Z,56.82
2018-08-22T03:21:25.329Z,56.72
2018-08-22T03:23:59.841Z,56.77
2018-08-22T03:26:34.468Z,56.59
2018-08-22T03:29:09.017Z,56.46
2018-08-22T03:31:43.665Z,56.56
2018-08-22T03:37:16.925Z,56.62
2018-08-22T03:39:51.458Z,57.07
2018-08-22T03:42:26.101Z,56.54
2018-08-22T03:45:00.840Z,56.63
2018-08-22T03:47:35.479Z,56.40
2018-08-22T03:50:10.199Z,56.24
2018-08-22T03:52:44.824Z,56.46
2018-08-22T03:55:19.389Z,55.88
2018-08-22T03:57:53.965Z,56.40
2018-08-22T04:00:28.557Z,56.42
2018-08-22T04:03:03.070Z,56.03
2018-08-22T04:05:37.664Z,56.50
2018-08-22T04:08:12.370Z,56.29
2018-08-22T04:10:46.816Z,56.47
2018-08-22T04:13:32.828Z,56.35
2018-08-22T04:16:07.394Z,56.52
2018-08-22T04:18:41.882Z,56.41
2018-08-22T04:21:16.468Z,56.49
2018-08-22T04:23:51.061Z,56.40
2018-08-22T04:26:25.844Z,56.72
2018-08-22T04:29:00.274Z,56.97
2018-08-22T04:31:35.185Z,57.07
2018-08-22T04:34:09.849Z,57.31
2018-08-22T04:36:44.945Z,57.05
2018-08-22T04:39:19.440Z,57.27
2018-08-22T04:41:54.025Z,57.06
2018-08-22T04:44:28.695Z,58.96
2018-08-22T04:47:03.405Z,57.71
2018-08-22T04:49:38.057Z,57.68
2018-08-22T04:52:13.069Z,58.00
2018-08-22T04:54:47.797Z,58.11
2018-08-22T04:57:22.320Z,57.52
2018-08-22T04:59:56.888Z,57.72
2018-08-22T05:02:31.572Z,59.11
2018-08-22T05:05:06.185Z,57.65
2018-08-22T05:07:40.737Z,56.98
2018-08-22T05:10:15.401Z,56.99
2018-08-22T05:12:50.039Z,56.88
2018-08-22T05:15:24.532Z,57.29
2018-08-22T05:17:59.193Z,56.36
2018-08-22T05:20:33.918Z,57.00
2018-08-22T05:23:08.609Z,56.23
2018-08-22T05:25:43.169Z,55.84
2018-08-22T05:28:17.784Z,55.79
2018-08-22T05:30:52.264Z,55.56
2018-08-22T05:33:26.837Z,55.15
2018-08-22T05:36:02.419Z,54.87
2018-08-22T05:38:36.991Z,54.52
2018-08-22T05:41:11.537Z,54.80
2018-08-22T05:43:46.165Z,54.18
2018-08-22T05:46:21.187Z,54.10
2018-08-22T05:48:55.712Z,54.04
2018-08-22T05:51:30.330Z,53.75
2018-08-22T05:54:04.942Z,53.92
2018-08-22T05:56:39.400Z,53.31
2018-08-22T05:59:14.196Z,49.23
2018-08-22T06:01:48.766Z,46.32
2018-08-22T06:04:23.401Z,46.69
2018-08-22T06:06:57.992Z,48.25
2018-08-22T06:09:32.474Z,45.82
2018-08-22T06:12:07.319Z,43.47
2018-08-22T06:14:41.990Z,41.72
2018-08-22T06:17:16.613Z,39.60
2018-08-22T06:19:51.421Z,36.66
2018-08-22T06:22:25.934Z,36.05
2018-08-22T06:25:00.578Z,35.46
2018-08-22T06:27:35.656Z,35.40
2018-08-22T06:30:11.177Z,32.91
2018-08-22T06:32:45.674Z,31.89
2018-08-22T06:35:20.289Z,30.66
2018-08-22T06:37:54.824Z,30.89
2018-08-22T06:40:29.397Z,30.42
2018-08-22T06:43:04.152Z,31.03
2018-08-22T06:45:38.609Z,30.56
2018-08-22T06:48:13.176Z,27.64
2018-08-22T06:50:47.813Z,27.92
2018-08-22T06:53:22.521Z,28.68
2018-08-22T06:55:57.033Z,28.58
2018-08-22T06:58:31.481Z,28.63
2018-08-22T07:01:06.064Z,29.17
2018-08-22T07:03:40.602Z,25.96
2018-08-22T07:06:15.173Z,26.55
2018-08-22T07:08:49.613Z,28.13
2018-08-22T07:11:24.270Z,28.74
2018-08-22T07:13:58.929Z,29.88
2018-08-22T07:16:33.500Z,26.02
2018-08-22T07:19:08.126Z,25.87
2018-08-22T07:21:42.679Z,24.38
2018-08-22T07:24:17.272Z,24.82
2018-08-22T07:26:51.991Z,24.53
2018-08-22T07:29:26.705Z,24.41
2018-08-22T07:32:01.264Z,24.47
2018-08-22T07:34:41.453Z,26.06
2018-08-22T07:37:16.325Z,25.72
2018-08-22T07:39:50.917Z,24.73
2018-08-22T07:42:25.529Z,22.43
2018-08-22T07:45:00.178Z,25.64
2018-08-22T07:47:34.737Z,25.53
2018-08-22T07:50:09.330Z,25.35
2018-08-22T07:52:50.640Z,25.48
2018-08-22T07:55:25.312Z,26.59
2018-08-22T07:58:00.037Z,27.74
2018-08-22T08:06:56.550Z,28.95
2018-08-22T08:09:31.096Z,31.62
2018-08-22T08:12:05.796Z,32.52
2018-08-22T08:14:40.449Z,33.53
2018-08-22T08:17:15.233Z,33.94
2018-08-22T08:19:49.741Z,33.55
2018-08-22T08:22:24.362Z,35.11
2018-08-22T08:24:58.932Z,31.86
2018-08-22T08:27:33.553Z,33.57
2018-08-22T08:30:08.108Z,34.58
2018-08-22T08:32:42.753Z,37.62
2018-08-22T08:35:17.474Z,37.70
2018-08-22T08:37:52.328Z,37.73
2018-08-22T08:40:26.725Z,36.42
2018-08-22T08:43:02.320Z,37.72
2018-08-22T08:45:38.954Z,38.95
2018-08-22T08:48:13.533Z,38.37
2018-08-22T08:50:48.306Z,35.31
2018-08-22T08:53:27.146Z,34.09
2018-08-22T08:56:03.447Z,27.86
2018-08-22T08:58:38.194Z,29.85
2018-08-22T09:01:12.704Z,28.29
2018-08-22T09:03:47.458Z,26.77
2018-08-22T09:06:22.032Z,28.22
2018-08-22T09:08:56.692Z,27.95
2018-08-22T09:11:31.380Z,30.42
2018-08-22T09:14:07.184Z,29.24
2018-08-22T09:16:41.752Z,33.13
2018-08-22T09:19:16.281Z,33.87
2018-08-22T09:21:50.840Z,33.65
2018-08-22T09:24:25.381Z,32.38
2018-08-22T09:26:59.845Z,31.23
2018-08-22T09:29:34.457Z,27.87
2018-08-22T09:32:09.168Z,29.30
2018-08-22T09:34:43.852Z,29.16
2018-08-22T09:37:18.705Z,31.73
2018-08-22T09:39:53.168Z,26.79
2018-08-22T09:42:27.648Z,27.89
2018-08-22T09:45:02.360Z,31.25
2018-08-22T09:47:37.116Z,29.79
2018-08-22T09:50:11.678Z,30.46
2018-08-22T09:52:46.301Z,33.62
2018-08-22T09:55:20.888Z,35.50
2018-08-22T09:57:55.487Z,37.09
2018-08-22T10:00:35.459Z,35.48
2018-08-22T10:03:09.918Z,34.84
2018-08-22T10:05:44.659Z,35.92
2018-08-22T10:08:19.161Z,32.62
2018-08-22T10:10:53.837Z,30.35
2018-08-22T10:13:28.392Z,30.57
2018-08-22T10:16:03.669Z,27.20
2018-08-22T10:18:38.325Z,24.69
2018-08-22T10:21:12.958Z,25.73
2018-08-22T10:23:47.633Z,26.68
2018-08-22T10:26:22.493Z,29.85
2018-08-22T10:28:57.130Z,32.29
2018-08-22T10:31:31.845Z,32.85
2018-08-22T10:34:10.377Z,31.01
2018-08-22T10:36:45.880Z,28.79
2018-08-22T10:39:20.451Z,28.82
2018-08-22T10:41:54.980Z,27.19
2018-08-22T10:44:29.735Z,26.32
2018-08-22T10:47:04.254Z,24.27
2018-08-22T10:49:38.748Z,21.04
2018-08-22T10:52:13.378Z,22.21
2018-08-22T10:54:47.869Z,23.59
2018-08-22T10:57:22.380Z,25.43
2018-08-22T11:00:04.877Z,25.17
2018-08-22T11:02:44.164Z,25.39
2018-08-22T11:05:31.057Z,26.75
2018-08-22T11:08:06.798Z,27.16
2018-08-22T11:10:41.677Z,28.90
2018-08-22T11:13:16.260Z,29.86
2018-08-22T11:15:51.036Z,29.48
2018-08-22T11:18:25.613Z,30.90
2018-08-22T11:21:11.786Z,30.26
2018-08-22T11:23:57.693Z,30.09
2018-08-22T11:26:43.504Z,32.47
2018-08-22T11:29:29.472Z,33.05
2018-08-22T11:32:15.316Z,33.64
2018-08-22T11:34:50.921Z,33.06
2018-08-22T11:37:25.621Z,31.81
2018-08-22T11:40:00.249Z,32.00
2018-08-22T11:42:34.769Z,34.29
2018-08-22T11:45:09.353Z,34.07
2018-08-22T11:47:44.065Z,34.31
2018-08-22T11:50:18.757Z,33.90
2018-08-22T11:52:53.450Z,34.01
2018-08-22T11:55:28.118Z,34.34
2018-08-22T11:58:03.025Z,34.25
2018-08-22T12:00:37.729Z,34.77
2018-08-22T12:03:12.252Z,35.35
2018-08-22T12:05:46.809Z,35.83
2018-08-22T12:08:21.332Z,35.49
2018-08-22T12:10:55.695Z,36.72
2018-08-22T12:13:30.122Z,36.87
2018-08-22T12:16:04.991Z,36.99
2018-08-22T12:18:39.793Z,36.87
2018-08-22T12:21:14.348Z,36.22
2018-08-22T12:23:48.892Z,35.83
2018-08-22T12:26:23.541Z,35.75
2018-08-22T12:28:58.071Z,35.59
2018-08-22T12:31:32.745Z,35.99
2018-08-22T12:34:07.905Z,35.23
2018-08-22T12:39:45.112Z,37.84
2018-08-22T12:42:19.699Z,36.45
2018-08-22T12:44:54.734Z,35.82
2018-08-22T12:47:29.253Z,36.50
2018-08-22T12:50:03.910Z,35.95
2018-08-22T12:52:38.408Z,36.02
2018-08-22T12:55:13.234Z,35.39
2018-08-22T12:57:47.705Z,35.53
2018-08-22T13:00:22.353Z,36.09
2018-08-22T13:02:56.848Z,36.90
2018-08-22T13:05:31.394Z,36.64
2018-08-22T13:08:06.268Z,36.52
2018-08-22T13:10:40.844Z,36.14
2018-08-22T13:13:15.576Z,36.86
2018-08-22T13:15:50.113Z,35.67
2018-08-22T13:18:24.723Z,37.74
2018-08-22T13:20:59.229Z,36.48
2018-08-22T13:23:34.049Z,37.22
2018-08-22T13:26:08.475Z,38.04
2018-08-22T13:28:43.040Z,36.46
2018-08-22T13:31:17.582Z,36.10
2018-08-22T13:33:52.058Z,36.67
2018-08-22T13:36:26.464Z,36.20
2018-08-22T13:39:01.202Z,37.13
2018-08-22T13:41:48.220Z,36.47
2018-08-22T13:44:23.384Z,37.06
2018-08-22T13:46:57.992Z,37.33
2018-08-22T13:49:32.597Z,35.16
2018-08-22T13:52:07.245Z,35.70
2018-08-22T13:54:41.798Z,36.20
2018-08-22T13:57:16.334Z,35.57
2018-08-22T13:59:50.833Z,34.98
2018-08-22T14:02:25.765Z,35.88
2018-08-22T14:05:00.404Z,36.36
2018-08-22T14:07:35.041Z,34.62
2018-08-22T14:10:09.680Z,35.27
2018-08-22T14:12:44.184Z,35.96
2018-08-22T14:15:18.749Z,34.68
2018-08-22T14:17:53.364Z,36.11
2018-08-22T14:20:27.809Z,35.59
2018-08-22T14:23:02.487Z,36.06
2018-08-22T14:25:37.152Z,34.96
2018-08-22T14:28:12.744Z,35.27
2018-08-22T14:30:47.470Z,35.25
2018-08-22T14:33:22.133Z,35.58
2018-08-22T14:35:56.725Z,34.08
2018-08-22T14:38:31.199Z,33.48
2018-08-22T14:41:05.709Z,32.47
2018-08-22T14:43:40.718Z,30.49
2018-08-22T14:46:15.161Z,29.46
2018-08-22T14:48:49.685Z,29.82
2018-08-22T14:51:24.353Z,30.31
2018-08-22T14:53:58.923Z,31.05
2018-08-22T14:56:33.616Z,29.91
2018-08-22T14:59:08.173Z,29.01
2018-08-22T15:01:42.714Z,29.36
2018-08-22T15:04:17.413Z,28.22
2018-08-22T15:06:51.983Z,27.78
2018-08-22T15:09:26.865Z,28.38
2018-08-22T15:12:01.357Z,26.82
2018-08-22T15:14:36.009Z,27.21
2018-08-22T15:17:10.871Z,27.16
2018-08-22T15:19:45.580Z,27.58
2018-08-22T15:22:20.321Z,28.38
2018-08-22T15:24:54.921Z,28.04
2018-08-22T15:27:29.472Z,29.32
2018-08-22T15:30:04.300Z,29.95
2018-08-22T15:32:38.938Z,29.47
2018-08-22T15:35:13.555Z,29.84
2018-08-22T15:37:48.152Z,29.15
2018-08-22T15:40:22.745Z,29.49
2018-08-22T15:42:57.248Z,30.30
2018-08-22T15:45:31.713Z,29.59
2018-08-22T15:48:06.241Z,29.64
2018-08-22T15:50:40.769Z,29.40
2018-08-22T15:53:15.481Z,29.32
2018-08-22T15:55:50.017Z,30.98
2018-08-22T15:58:24.617Z,31.75
2018-08-22T16:00:59.026Z,30.74
2018-08-22T16:03:33.733Z,31.16
2018-08-22T16:06:08.369Z,32.42
2018-08-22T16:08:42.989Z,33.46
2018-08-22T16:11:17.554Z,35.03
2018-08-22T16:13:52.301Z,36.30
2018-08-22T16:16:26.911Z,36.27
2018-08-22T16:19:04.044Z,36.79
2018-08-22T16:21:38.590Z,37.62
2018-08-22T16:24:13.349Z,37.64
2018-08-22T16:26:48.005Z,38.26
2018-08-22T16:29:22.645Z,37.72
2018-08-22T16:31:57.182Z,38.79
2018-08-22T16:34:31.757Z,39.14
2018-08-22T16:37:06.548Z,39.03
2018-08-22T16:39:43.004Z,39.99
2018-08-22T16:42:21.427Z,40.01
2018-08-22T16:44:56.049Z,40.34
2018-08-22T16:47:34.721Z,40.75
2018-08-22T16:50:09.241Z,41.57
2018-08-22T16:52:43.737Z,41.68
2018-08-22T16:55:22.452Z,42.21
2018-08-22T16:57:57.152Z,42.67
2018-08-22T17:00:37.936Z,42.56
2018-08-22T17:03:12.680Z,42.35
2018-08-22T17:05:47.342Z,42.71
2018-08-22T17:08:22.030Z,42.90
2018-08-22T17:11:00.256Z,43.09
2018-08-22T17:13:45.604Z,43.57
2018-08-22T17:16:20.517Z,42.93
2018-08-22T17:18:58.417Z,43.58
2018-08-22T17:21:33.638Z,43.69
2018-08-22T17:24:08.434Z,44.83
2018-08-22T17:26:43.979Z,44.23
2018-08-22T17:29:18.644Z,44.35
2018-08-22T17:31:58.516Z,45.18
2018-08-22T17:34:33.387Z,45.22
2018-08-22T17:37:09.502Z,45.25
2018-08-22T17:39:44.846Z,44.69
2018-08-22T17:42:19.344Z,45.57
2018-08-22T17:44:53.813Z,45.70
2018-08-22T17:47:28.402Z,45.97
2018-08-22T17:50:07.324Z,45.99
2018-08-22T17:52:41.701Z,46.08
2018-08-22T17:55:17.069Z,46.78
2018-08-22T17:57:51.601Z,46.18
2018-08-22T18:00:28.569Z,47.01
2018-08-22T18:03:03.203Z,46.80
2018-08-22T18:05:37.778Z,47.15
2018-08-22T18:08:12.946Z,47.75
2018-08-22T18:10:47.685Z,47.92
2018-08-22T18:13:22.376Z,48.82
2018-08-22T18:15:56.890Z,48.80
2018-08-22T18:18:31.405Z,48.96
2018-08-22T18:21:05.840Z,49.55
2018-08-22T18:23:45.413Z,49.46
2018-08-22T18:26:20.051Z,49.50
2018-08-22T18:28:54.740Z,49.34
2018-08-22T18:31:29.265Z,50.08
2018-08-22T18:34:03.913Z,50.31
2018-08-22T18:36:38.417Z,50.97
2018-08-22T18:39:15.221Z,50.66
2018-08-22T18:41:49.717Z,50.91
2018-08-22T18:44:24.155Z,51.27
2018-08-22T18:46:58.688Z,51.03
2018-08-22T18:49:33.261Z,51.77
2018-08-22T18:52:07.769Z,52.11
2018-08-22T18:54:42.357Z,52.42
2018-08-22T18:57:17.097Z,53.45
2018-08-22T18:59:51.940Z,54.17
2018-08-22T19:02:27.593Z,54.71
2018-08-22T19:05:34.783Z,55.22
2018-08-22T19:08:11.028Z,54.96
2018-08-22T19:10:47.955Z,55.43
2018-08-22T19:13:23.898Z,54.93
2018-08-22T19:16:00.748Z,55.18
2018-08-22T19:18:35.569Z,56.15
2018-08-22T19:21:11.132Z,57.30
2018-08-22T19:23:46.849Z,56.74
2018-08-22T19:26:21.598Z,57.01
2018-08-22T19:28:58.002Z,56.93
2018-08-22T19:31:32.419Z,56.50
2018-08-22T19:34:06.961Z,56.50
2018-08-22T19:36:42.045Z,56.84
2018-08-22T19:39:17.453Z,56.38
2018-08-22T19:41:52.065Z,56.28
2018-08-22T19:44:26.677Z,56.10
2018-08-22T19:47:01.251Z,55.93
2018-08-22T19:49:35.864Z,56.71
2018-08-22T19:52:10.401Z,56.83
2018-08-22T19:54:44.973Z,57.34
2018-08-22T19:57:23.857Z,56.58
2018-08-22T19:59:58.339Z,56.52
2018-08-22T20:02:33.225Z,56.27
2018-08-22T20:05:09.257Z,56.32
2018-08-22T20:07:43.765Z,56.54
2018-08-22T20:10:22.508Z,56.63
2018-08-22T20:12:57.528Z,56.23
2018-08-22T20:15:32.064Z,56.45
2018-08-22T20:18:06.608Z,56.15
2018-08-22T20:20:41.279Z,56.78
2018-08-22T20:23:16.106Z,56.45
2018-08-22T20:25:50.746Z,56.60
2018-08-22T20:28:25.421Z,57.01
2018-08-22T20:31:04.156Z,56.94
2018-08-22T20:33:39.585Z,57.11
2018-08-22T20:36:14.189Z,57.71
2018-08-22T20:38:48.777Z,57.68
2018-08-22T20:41:23.442Z,57.57
2018-08-22T20:43:58.118Z,58.57
2018-08-22T20:46:32.688Z,58.46
2018-08-22T20:49:07.341Z,58.57
2018-08-22T20:51:41.991Z,59.32
2018-08-22T20:54:23.981Z,59.07
2018-08-22T20:57:00.180Z,58.96
2018-08-22T20:59:34.745Z,59.74
2018-08-22T21:02:09.347Z,59.71
2018-08-22T21:04:43.870Z,59.88
2018-08-22T21:07:30.746Z,60.58
2018-08-22T21:10:05.322Z,60.55
2018-08-22T21:12:40.007Z,61.22
2018-08-22T21:15:14.612Z,60.87
2018-08-22T21:17:49.269Z,61.14
2018-08-22T21:20:24.881Z,61.59
2018-08-22T21:23:09.153Z,62.36
2018-08-22T21:31:44.663Z,62.88
2018-08-22T21:34:21.526Z,63.39
2018-08-22T21:36:56.130Z,63.37
2018-08-22T21:39:30.661Z,63.31
2018-08-22T21:42:05.161Z,63.82
2018-08-22T21:44:39.725Z,64.08
2018-08-22T21:47:14.384Z,63.67
2018-08-22T21:49:49.097Z,64.51
2018-08-22T21:52:23.708Z,64.39
2018-08-22T21:54:58.188Z,65.19
2018-08-22T21:57:32.718Z,65.29
2018-08-22T22:00:10.493Z,65.31
2018-08-22T22:02:45.336Z,65.94
2018-08-22T22:05:24.029Z,65.95
2018-08-22T22:07:58.737Z,65.60
2018-08-22T22:10:33.257Z,65.96
2018-08-22T22:13:08.448Z,66.66
2018-08-22T22:15:45.325Z,67.31
2018-08-22T22:18:22.976Z,67.30
2018-08-22T22:21:15.173Z,67.51
2018-08-22T22:23:49.985Z,67.56
2018-08-22T22:26:24.589Z,66.70
2018-08-22T22:28:59.289Z,66.82
2018-08-22T22:31:33.983Z,67.12
2018-08-22T22:34:10.226Z,67.57
2018-08-22T22:36:44.947Z,67.50
2018-08-22T22:39:33.956Z,67.28
2018-08-22T22:42:14.897Z,67.09
2018-08-22T22:44:50.673Z,67.57
2018-08-22T22:47:28.473Z,67.63
2018-08-22T22:50:04.181Z,68.57
2018-08-22T22:52:43.097Z,68.25
2018-08-22T22:55:17.568Z,67.87
2018-08-22T22:57:52.283Z,68.56
2018-08-22T23:00:29.268Z,68.24
2018-08-22T23:03:07.412Z,68.55
2018-08-22T23:05:41.937Z,68.79
2018-08-22T23:08:16.506Z,68.92
2018-08-22T23:10:51.059Z,68.89
2018-08-22T23:13:27.219Z,69.12
2018-08-22T23:16:08.201Z,69.98
2018-08-22T23:18:42.944Z,70.47
2018-08-22T23:21:17.636Z,70.93
2018-08-22T23:23:52.265Z,71.30
2018-08-22T23:26:27.017Z,71.10
2018-08-22T23:29:01.813Z,71.00
2018-08-22T23:31:36.490Z,70.32
2018-08-22T23:34:11.194Z,70.96
2018-08-22T23:36:45.817Z,71.15
2018-08-22T23:39:22.688Z,71.37
2018-08-22T23:41:57.437Z,70.92
2018-08-22T23:44:32.065Z,70.91
2018-08-22T23:47:06.653Z,71.86
2018-08-22T23:49:45.284Z,72.18
2018-08-22T23:52:19.744Z,72.93
2018-08-22T23:54:54.356Z,72.51
2018-08-22T23:57:28.920Z,72.84
